sensor_id;sensor_type;location;lat;lon;timestamp;temperature;humidity
25582;DHT22;13462;50.764;4.332;2023-02-15T00:01:45;5.40;99.90
25582;DHT22;13462;50.764;4.332;2023-02-15T00:04:12;5.20;99.90
25582;DHT22;13462;50.764;4.332;2023-02-15T00:06:38;5.30;99.90
25582;DHT22;13462;50.764;4.332;2023-02-15T00:09:04;5.50;99.90
25582;DHT22;13462;50.764;4.332;2023-02-15T00:11:29;5.50;99.90
25582;DHT22;13462;50.764;4.332;2023-02-15T00:16:39;5.60;99.90
25582;DHT22;13462;50.764;4.332;2023-02-15T00:19:05;5.60;99.90
25582;DHT22;13462;50.764;4.332;2023-02-15T00:21:31;5.50;99.90
25582;DHT22;13462;50.764;4.332;2023-02-15T00:23:58;5.50;99.90
25582;DHT22;13462;50.764;4.332;2023-02-15T00:26:23;5.40;99.90
25582;DHT22;13462;50.764;4.332;2023-02-15T00:28:49;5.30;99.90
25582;DHT22;13462;50.764;4.332;2023-02-15T00:31:15;5.20;99.90
25582;DHT22;13462;50.764;4.332;2023-02-15T00:33:40;5.20;99.90
25582;DHT22;13462;50.764;4.332;2023-02-15T00:36:06;5.00;99.90
25582;DHT22;13462;50.764;4.332;2023-02-15T00:38:32;4.80;99.90
25582;DHT22;13462;50.764;4.332;2023-02-15T00:40:59;4.90;99.90
25582;DHT22;13462;50.764;4.332;2023-02-15T00:43:25;4.90;99.90
25582;DHT22;13462;50.764;4.332;2023-02-15T00:45:51;5.10;99.90
25582;DHT22;13462;50.764;4.332;2023-02-15T00:48:17;5.20;99.90
25582;DHT22;13462;50.764;4.332;2023-02-15T00:50:46;5.30;99.90
25582;DHT22;13462;50.764;4.332;2023-02-15T00:53:12;5.40;99.90
25582;DHT22;13462;50.764;4.332;2023-02-15T00:55:38;5.40;99.90
25582;DHT22;13462;50.764;4.332;2023-02-15T00:58:05;5.50;99.90
25582;DHT22;13462;50.764;4.332;2023-02-15T01:00:30;5.40;99.90
25582;DHT22;13462;50.764;4.332;2023-02-15T01:02:56;5.40;99.90
25582;DHT22;13462;50.764;4.332;2023-02-15T01:05:21;5.40;99.90
25582;DHT22;13462;50.764;4.332;2023-02-15T01:07:47;5.40;99.90
25582;DHT22;13462;50.764;4.332;2023-02-15T01:10:12;5.50;99.90
25582;DHT22;13462;50.764;4.332;2023-02-15T01:12:38;5.40;99.90
25582;DHT22;13462;50.764;4.332;2023-02-15T01:15:03;5.40;99.90
25582;DHT22;13462;50.764;4.332;2023-02-15T01:17:29;5.40;99.90
25582;DHT22;13462;50.764;4.332;2023-02-15T01:19:55;5.40;99.90
25582;DHT22;13462;50.764;4.332;2023-02-15T01:22:21;5.40;99.90
25582;DHT22;13462;50.764;4.332;2023-02-15T01:24:48;5.40;99.90
25582;DHT22;13462;50.764;4.332;2023-02-15T01:27:14;5.40;99.90
25582;DHT22;13462;50.764;4.332;2023-02-15T01:29:39;5.40;99.90
25582;DHT22;13462;50.764;4.332;2023-02-15T01:32:05;5.30;99.90
25582;DHT22;13462;50.764;4.332;2023-02-15T01:34:30;5.30;99.90
25582;DHT22;13462;50.764;4.332;2023-02-15T01:36:56;5.30;99.90
25582;DHT22;13462;50.764;4.332;2023-02-15T01:39:21;5.30;99.90
25582;DHT22;13462;50.764;4.332;2023-02-15T01:41:47;5.30;99.90
25582;DHT22;13462;50.764;4.332;2023-02-15T01:47:00;5.20;99.90
25582;DHT22;13462;50.764;4.332;2023-02-15T01:49:25;5.20;99.90
25582;DHT22;13462;50.764;4.332;2023-02-15T01:51:52;5.10;99.90
25582;DHT22;13462;50.764;4.332;2023-02-15T01:54:22;5.20;99.90
25582;DHT22;13462;50.764;4.332;2023-02-15T01:56:49;5.20;99.90
25582;DHT22;13462;50.764;4.332;2023-02-15T01:59:19;5.30;99.90
25582;DHT22;13462;50.764;4.332;2023-02-15T02:01:46;5.40;99.90
25582;DHT22;13462;50.764;4.332;2023-02-15T02:06:37;5.30;99.90
25582;DHT22;13462;50.764;4.332;2023-02-15T02:09:04;5.30;99.90
25582;DHT22;13462;50.764;4.332;2023-02-15T02:11:30;5.30;99.90
25582;DHT22;13462;50.764;4.332;2023-02-15T02:13:56;5.30;99.90
25582;DHT22;13462;50.764;4.332;2023-02-15T02:24:11;5.20;99.90
25582;DHT22;13462;50.764;4.332;2023-02-15T02:32:17;5.30;99.90
25582;DHT22;13462;50.764;4.332;2023-02-15T02:42:54;5.40;99.90
25582;DHT22;13462;50.764;4.332;2023-02-15T02:47:48;5.30;99.90
25582;DHT22;13462;50.764;4.332;2023-02-15T02:50:21;5.30;99.90
25582;DHT22;13462;50.764;4.332;2023-02-15T02:58:47;5.30;99.90
25582;DHT22;13462;50.764;4.332;2023-02-15T03:01:22;5.10;99.90
25582;DHT22;13462;50.764;4.332;2023-02-15T03:03:51;4.90;99.90
25582;DHT22;13462;50.764;4.332;2023-02-15T03:06:19;4.70;99.90
25582;DHT22;13462;50.764;4.332;2023-02-15T03:08:47;4.50;99.90
25582;DHT22;13462;50.764;4.332;2023-02-15T03:11:14;4.40;99.90
25582;DHT22;13462;50.764;4.332;2023-02-15T03:13:40;4.30;99.90
25582;DHT22;13462;50.764;4.332;2023-02-15T03:16:05;4.20;99.90
25582;DHT22;13462;50.764;4.332;2023-02-15T03:18:55;4.30;99.90
25582;DHT22;13462;50.764;4.332;2023-02-15T03:24:35;4.30;99.90
25582;DHT22;13462;50.764;4.332;2023-02-15T03:27:04;4.30;99.90
25582;DHT22;13462;50.764;4.332;2023-02-15T03:29:31;4.40;99.90
25582;DHT22;13462;50.764;4.332;2023-02-15T03:31:59;4.50;99.90
25582;DHT22;13462;50.764;4.332;2023-02-15T03:34:25;4.50;99.90
25582;DHT22;13462;50.764;4.332;2023-02-15T03:37:11;4.60;99.90
25582;DHT22;13462;50.764;4.332;2023-02-15T03:42:12;4.30;99.90
25582;DHT22;13462;50.764;4.332;2023-02-15T03:44:47;4.10;99.90
25582;DHT22;13462;50.764;4.332;2023-02-15T03:47:16;4.10;99.90
25582;DHT22;13462;50.764;4.332;2023-02-15T03:49:44;4.00;99.90
25582;DHT22;13462;50.764;4.332;2023-02-15T03:52:12;3.90;99.90
25582;DHT22;13462;50.764;4.332;2023-02-15T03:54:39;3.90;99.90
25582;DHT22;13462;50.764;4.332;2023-02-15T03:57:11;3.80;99.90
25582;DHT22;13462;50.764;4.332;2023-02-15T03:59:56;3.90;99.90
25582;DHT22;13462;50.764;4.332;2023-02-15T04:03:03;3.80;99.90
25582;DHT22;13462;50.764;4.332;2023-02-15T04:05:35;3.90;99.90
25582;DHT22;13462;50.764;4.332;2023-02-15T04:08:00;3.80;99.90
25582;DHT22;13462;50.764;4.332;2023-02-15T04:10:26;3.80;99.90
25582;DHT22;13462;50.764;4.332;2023-02-15T04:13:10;3.70;99.90
25582;DHT22;13462;50.764;4.332;2023-02-15T04:15:36;3.80;99.90
25582;DHT22;13462;50.764;4.332;2023-02-15T04:18:20;3.80;99.90
25582;DHT22;13462;50.764;4.332;2023-02-15T04:20:45;3.80;99.90
25582;DHT22;13462;50.764;4.332;2023-02-15T04:23:29;3.70;99.90
25582;DHT22;13462;50.764;4.332;2023-02-15T04:26:13;3.80;99.90
25582;DHT22;13462;50.764;4.332;2023-02-15T04:28:39;3.90;99.90
25582;DHT22;13462;50.764;4.332;2023-02-15T04:31:04;3.90;99.90
25582;DHT22;13462;50.764;4.332;2023-02-15T04:33:30;4.00;99.90
25582;DHT22;13462;50.764;4.332;2023-02-15T04:35:55;4.00;99.90
25582;DHT22;13462;50.764;4.332;2023-02-15T04:38:21;4.00;99.90
25582;DHT22;13462;50.764;4.332;2023-02-15T04:40:50;4.00;99.90
25582;DHT22;13462;50.764;4.332;2023-02-15T04:43:17;3.90;99.90
25582;DHT22;13462;50.764;4.332;2023-02-15T04:45:47;3.70;99.90
25582;DHT22;13462;50.764;4.332;2023-02-15T04:48:12;3.60;99.90
25582;DHT22;13462;50.764;4.332;2023-02-15T04:50:38;3.60;99.90
25582;DHT22;13462;50.764;4.332;2023-02-15T04:53:03;3.70;99.90
25582;DHT22;13462;50.764;4.332;2023-02-15T04:55:29;3.60;99.90
25582;DHT22;13462;50.764;4.332;2023-02-15T04:57:54;3.50;99.90
25582;DHT22;13462;50.764;4.332;2023-02-15T05:00:20;3.50;99.90
25582;DHT22;13462;50.764;4.332;2023-02-15T05:02:45;3.40;99.90
25582;DHT22;13462;50.764;4.332;2023-02-15T05:05:11;3.40;99.90
25582;DHT22;13462;50.764;4.332;2023-02-15T05:07:38;3.50;99.90
25582;DHT22;13462;50.764;4.332;2023-02-15T05:13:11;3.20;99.90
25582;DHT22;13462;50.764;4.332;2023-02-15T05:15:36;3.30;99.90
25582;DHT22;13462;50.764;4.332;2023-02-15T05:23:57;3.60;99.90
25582;DHT22;13462;50.764;4.332;2023-02-15T05:26:25;3.50;99.90
25582;DHT22;13462;50.764;4.332;2023-02-15T05:29:09;3.40;99.90
25582;DHT22;13462;50.764;4.332;2023-02-15T05:31:35;3.10;99.90
25582;DHT22;13462;50.764;4.332;2023-02-15T05:34:00;2.90;99.90
25582;DHT22;13462;50.764;4.332;2023-02-15T05:36:26;2.80;99.90
25582;DHT22;13462;50.764;4.332;2023-02-15T05:38:51;2.60;99.90
25582;DHT22;13462;50.764;4.332;2023-02-15T05:41:17;2.60;99.90
25582;DHT22;13462;50.764;4.332;2023-02-15T05:43:42;2.60;99.90
25582;DHT22;13462;50.764;4.332;2023-02-15T05:46:08;2.50;99.90
25582;DHT22;13462;50.764;4.332;2023-02-15T05:48:33;2.40;99.90
25582;DHT22;13462;50.764;4.332;2023-02-15T05:51:00;2.30;99.90
25582;DHT22;13462;50.764;4.332;2023-02-15T05:53:26;2.30;99.90
25582;DHT22;13462;50.764;4.332;2023-02-15T05:55:51;2.20;99.90
25582;DHT22;13462;50.764;4.332;2023-02-15T05:58:17;2.30;99.90
25582;DHT22;13462;50.764;4.332;2023-02-15T06:00:42;2.30;99.90
25582;DHT22;13462;50.764;4.332;2023-02-15T06:03:08;2.40;99.90
25582;DHT22;13462;50.764;4.332;2023-02-15T06:05:34;2.40;99.90
25582;DHT22;13462;50.764;4.332;2023-02-15T06:07:59;2.50;99.90
25582;DHT22;13462;50.764;4.332;2023-02-15T06:10:25;2.50;99.90
25582;DHT22;13462;50.764;4.332;2023-02-15T06:12:50;2.60;99.90
25582;DHT22;13462;50.764;4.332;2023-02-15T06:15:16;2.60;99.90
25582;DHT22;13462;50.764;4.332;2023-02-15T06:17:41;2.60;99.90
25582;DHT22;13462;50.764;4.332;2023-02-15T06:20:07;2.50;99.90
25582;DHT22;13462;50.764;4.332;2023-02-15T06:22:33;2.30;99.90
25582;DHT22;13462;50.764;4.332;2023-02-15T06:24:59;2.00;99.90
25582;DHT22;13462;50.764;4.332;2023-02-15T06:27:24;2.00;99.90
25582;DHT22;13462;50.764;4.332;2023-02-15T06:29:50;2.10;99.90
25582;DHT22;13462;50.764;4.332;2023-02-15T06:32:15;2.20;99.90
25582;DHT22;13462;50.764;4.332;2023-02-15T06:34:41;2.30;99.90
25582;DHT22;13462;50.764;4.332;2023-02-15T06:37:06;2.50;99.90
25582;DHT22;13462;50.764;4.332;2023-02-15T06:39:33;2.60;99.90
25582;DHT22;13462;50.764;4.332;2023-02-15T06:41:58;2.40;99.90
25582;DHT22;13462;50.764;4.332;2023-02-15T06:44:24;2.30;99.90
25582;DHT22;13462;50.764;4.332;2023-02-15T06:46:49;2.40;99.90
25582;DHT22;13462;50.764;4.332;2023-02-15T06:49:15;2.50;99.90
25582;DHT22;13462;50.764;4.332;2023-02-15T06:51:40;2.60;99.90
25582;DHT22;13462;50.764;4.332;2023-02-15T06:54:06;2.60;99.90
25582;DHT22;13462;50.764;4.332;2023-02-15T06:56:31;2.50;99.90
25582;DHT22;13462;50.764;4.332;2023-02-15T06:58:57;2.50;99.90
25582;DHT22;13462;50.764;4.332;2023-02-15T07:01:22;2.60;99.90
25582;DHT22;13462;50.764;4.332;2023-02-15T07:03:48;2.70;99.90
25582;DHT22;13462;50.764;4.332;2023-02-15T07:06:13;2.80;99.90
25582;DHT22;13462;50.764;4.332;2023-02-15T07:08:39;2.90;99.90
25582;DHT22;13462;50.764;4.332;2023-02-15T07:11:05;3.00;99.90
25582;DHT22;13462;50.764;4.332;2023-02-15T07:13:49;3.10;99.90
25582;DHT22;13462;50.764;4.332;2023-02-15T07:16:15;3.30;99.90
25582;DHT22;13462;50.764;4.332;2023-02-15T07:18:40;3.50;99.90
25582;DHT22;13462;50.764;4.332;2023-02-15T07:21:06;3.60;99.90
25582;DHT22;13462;50.764;4.332;2023-02-15T07:23:35;3.80;99.90
25582;DHT22;13462;50.764;4.332;2023-02-15T07:26:00;4.10;99.90
25582;DHT22;13462;50.764;4.332;2023-02-15T07:28:27;4.20;99.90
25582;DHT22;13462;50.764;4.332;2023-02-15T07:30:52;4.40;99.90
25582;DHT22;13462;50.764;4.332;2023-02-15T07:33:18;4.50;99.90
25582;DHT22;13462;50.764;4.332;2023-02-15T07:35:50;4.60;99.90
25582;DHT22;13462;50.764;4.332;2023-02-15T07:38:16;4.70;99.90
25582;DHT22;13462;50.764;4.332;2023-02-15T07:40:41;4.90;99.90
25582;DHT22;13462;50.764;4.332;2023-02-15T07:43:07;5.00;99.90
25582;DHT22;13462;50.764;4.332;2023-02-15T07:45:32;5.20;99.90
25582;DHT22;13462;50.764;4.332;2023-02-15T07:47:59;5.40;99.90
25582;DHT22;13462;50.764;4.332;2023-02-15T07:50:25;5.50;99.90
25582;DHT22;13462;50.764;4.332;2023-02-15T07:52:50;5.60;99.90
25582;DHT22;13462;50.764;4.332;2023-02-15T07:55:16;5.70;99.90
25582;DHT22;13462;50.764;4.332;2023-02-15T07:57:42;5.90;99.90
25582;DHT22;13462;50.764;4.332;2023-02-15T08:00:09;5.90;99.90
25582;DHT22;13462;50.764;4.332;2023-02-15T08:02:35;6.00;99.90
25582;DHT22;13462;50.764;4.332;2023-02-15T08:05:02;6.10;99.90
25582;DHT22;13462;50.764;4.332;2023-02-15T08:07:27;6.20;99.90
25582;DHT22;13462;50.764;4.332;2023-02-15T08:09:53;6.40;99.90
25582;DHT22;13462;50.764;4.332;2023-02-15T08:12:19;6.50;99.90
25582;DHT22;13462;50.764;4.332;2023-02-15T08:14:44;6.70;99.90
25582;DHT22;13462;50.764;4.332;2023-02-15T08:17:10;6.90;99.90
25582;DHT22;13462;50.764;4.332;2023-02-15T08:19:35;7.00;99.90
25582;DHT22;13462;50.764;4.332;2023-02-15T08:22:02;7.30;99.90
25582;DHT22;13462;50.764;4.332;2023-02-15T08:24:29;7.70;99.90
25582;DHT22;13462;50.764;4.332;2023-02-15T08:26:55;8.10;99.90
25582;DHT22;13462;50.764;4.332;2023-02-15T08:29:23;9.30;99.90
25582;DHT22;13462;50.764;4.332;2023-02-15T08:31:49;10.60;99.90
25582;DHT22;13462;50.764;4.332;2023-02-15T08:34:16;12.10;99.90
25582;DHT22;13462;50.764;4.332;2023-02-15T08:36:42;13.50;99.90
25582;DHT22;13462;50.764;4.332;2023-02-15T08:39:10;14.30;98.70
25582;DHT22;13462;50.764;4.332;2023-02-15T08:41:36;14.60;96.10
25582;DHT22;13462;50.764;4.332;2023-02-15T08:44:03;14.80;95.10
25582;DHT22;13462;50.764;4.332;2023-02-15T08:46:31;15.30;93.40
25582;DHT22;13462;50.764;4.332;2023-02-15T08:48:57;15.90;92.20
25582;DHT22;13462;50.764;4.332;2023-02-15T08:51:24;16.20;90.70
25582;DHT22;13462;50.764;4.332;2023-02-15T08:53:54;16.40;88.60
25582;DHT22;13462;50.764;4.332;2023-02-15T08:56:22;16.50;87.80
25582;DHT22;13462;50.764;4.332;2023-02-15T08:58:48;17.00;87.00
25582;DHT22;13462;50.764;4.332;2023-02-15T09:01:14;17.70;83.60
25582;DHT22;13462;50.764;4.332;2023-02-15T09:03:43;17.80;81.40
25582;DHT22;13462;50.764;4.332;2023-02-15T09:06:09;17.70;81.30
25582;DHT22;13462;50.764;4.332;2023-02-15T09:08:35;17.40;80.30
25582;DHT22;13462;50.764;4.332;2023-02-15T09:11:06;17.20;81.00
25582;DHT22;13462;50.764;4.332;2023-02-15T09:13:32;16.80;82.00
25582;DHT22;13462;50.764;4.332;2023-02-15T09:16:02;16.90;83.10
25582;DHT22;13462;50.764;4.332;2023-02-15T09:18:29;17.20;82.20
25582;DHT22;13462;50.764;4.332;2023-02-15T09:20:55;17.70;80.70
25582;DHT22;13462;50.764;4.332;2023-02-15T09:23:21;18.00;79.30
25582;DHT22;13462;50.764;4.332;2023-02-15T09:25:46;18.80;76.70
25582;DHT22;13462;50.764;4.332;2023-02-15T09:28:12;19.30;74.50
25582;DHT22;13462;50.764;4.332;2023-02-15T09:30:38;19.70;72.50
25582;DHT22;13462;50.764;4.332;2023-02-15T09:33:03;19.80;71.20
25582;DHT22;13462;50.764;4.332;2023-02-15T09:35:29;19.60;72.20
25582;DHT22;13462;50.764;4.332;2023-02-15T09:38:15;19.80;71.40
25582;DHT22;13462;50.764;4.332;2023-02-15T09:40:42;19.90;70.10
25582;DHT22;13462;50.764;4.332;2023-02-15T09:43:16;19.90;70.00
25582;DHT22;13462;50.764;4.332;2023-02-15T09:45:57;20.10;69.50
25582;DHT22;13462;50.764;4.332;2023-02-15T09:51:26;19.90;69.20
25582;DHT22;13462;50.764;4.332;2023-02-15T09:56:52;20.00;67.80
25582;DHT22;13462;50.764;4.332;2023-02-15T10:01:54;19.90;67.80
25582;DHT22;13462;50.764;4.332;2023-02-15T10:04:34;20.50;67.10
25582;DHT22;13462;50.764;4.332;2023-02-15T10:07:16;20.50;66.60
25582;DHT22;13462;50.764;4.332;2023-02-15T10:23:56;21.10;62.90
25582;DHT22;13462;50.764;4.332;2023-02-15T10:26:35;21.60;62.20
25582;DHT22;13462;50.764;4.332;2023-02-15T10:29:07;21.30;62.40
25582;DHT22;13462;50.764;4.332;2023-02-15T10:31:37;21.10;62.50
25582;DHT22;13462;50.764;4.332;2023-02-15T10:42:18;21.40;63.80
25582;DHT22;13462;50.764;4.332;2023-02-15T11:00:33;22.70;58.10
25582;DHT22;13462;50.764;4.332;2023-02-15T11:05:38;22.00;58.80
25582;DHT22;13462;50.764;4.332;2023-02-15T11:08:06;21.50;60.80
25582;DHT22;13462;50.764;4.332;2023-02-15T11:13:09;21.10;61.60
25582;DHT22;13462;50.764;4.332;2023-02-15T11:15:47;20.20;64.40
25582;DHT22;13462;50.764;4.332;2023-02-15T11:23:35;19.40;66.10
25582;DHT22;13462;50.764;4.332;2023-02-15T11:26:06;19.20;67.50
25582;DHT22;13462;50.764;4.332;2023-02-15T11:28:41;19.30;67.70
25582;DHT22;13462;50.764;4.332;2023-02-15T11:31:18;19.30;68.70
25582;DHT22;13462;50.764;4.332;2023-02-15T11:33:46;19.70;67.70
25582;DHT22;13462;50.764;4.332;2023-02-15T11:36:17;20.50;66.60
25582;DHT22;13462;50.764;4.332;2023-02-15T11:38:44;20.70;64.40
25582;DHT22;13462;50.764;4.332;2023-02-15T11:41:34;20.40;64.80
25582;DHT22;13462;50.764;4.332;2023-02-15T11:46:41;18.60;68.80
25582;DHT22;13462;50.764;4.332;2023-02-15T11:52:00;18.00;72.40
25582;DHT22;13462;50.764;4.332;2023-02-15T11:54:30;17.30;74.30
25582;DHT22;13462;50.764;4.332;2023-02-15T11:57:03;17.50;75.60
25582;DHT22;13462;50.764;4.332;2023-02-15T11:59:31;17.90;75.80
25582;DHT22;13462;50.764;4.332;2023-02-15T12:02:00;18.50;73.30
25582;DHT22;13462;50.764;4.332;2023-02-15T12:04:28;18.80;72.30
25582;DHT22;13462;50.764;4.332;2023-02-15T12:12:21;18.30;72.80
25582;DHT22;13462;50.764;4.332;2023-02-15T12:14:49;17.80;76.30
25582;DHT22;13462;50.764;4.332;2023-02-15T12:17:15;17.70;77.10
25582;DHT22;13462;50.764;4.332;2023-02-15T12:19:44;16.90;80.70
25582;DHT22;13462;50.764;4.332;2023-02-15T12:22:26;16.40;84.70
25582;DHT22;13462;50.764;4.332;2023-02-15T12:25:03;16.90;83.70
25582;DHT22;13462;50.764;4.332;2023-02-15T12:27:30;17.60;80.40
25582;DHT22;13462;50.764;4.332;2023-02-15T12:30:00;17.80;79.00
25582;DHT22;13462;50.764;4.332;2023-02-15T12:32:34;18.50;76.70
25582;DHT22;13462;50.764;4.332;2023-02-15T12:35:10;18.90;75.30
25582;DHT22;13462;50.764;4.332;2023-02-15T12:37:51;19.90;74.50
25582;DHT22;13462;50.764;4.332;2023-02-15T12:40:24;20.70;69.80
25582;DHT22;13462;50.764;4.332;2023-02-15T12:42:51;21.60;68.70
25582;DHT22;13462;50.764;4.332;2023-02-15T12:45:30;21.80;67.80
25582;DHT22;13462;50.764;4.332;2023-02-15T12:50:37;22.80;64.60
25582;DHT22;13462;50.764;4.332;2023-02-15T12:53:17;22.90;63.50
25582;DHT22;13462;50.764;4.332;2023-02-15T12:55:52;22.70;62.70
25582;DHT22;13462;50.764;4.332;2023-02-15T12:58:19;22.70;63.00
25582;DHT22;13462;50.764;4.332;2023-02-15T13:00:45;22.60;63.60
25582;DHT22;13462;50.764;4.332;2023-02-15T13:03:18;21.90;63.80
25582;DHT22;13462;50.764;4.332;2023-02-15T13:05:44;21.40;66.40
25582;DHT22;13462;50.764;4.332;2023-02-15T13:08:20;21.50;65.80
25582;DHT22;13462;50.764;4.332;2023-02-15T13:11:02;21.00;67.10
25582;DHT22;13462;50.764;4.332;2023-02-15T13:13:33;21.30;67.30
25582;DHT22;13462;50.764;4.332;2023-02-15T13:16:01;21.40;66.30
25582;DHT22;13462;50.764;4.332;2023-02-15T13:20:56;20.70;67.60
25582;DHT22;13462;50.764;4.332;2023-02-15T13:25:52;22.00;65.90
25582;DHT22;13462;50.764;4.332;2023-02-15T13:28:20;22.50;64.40
25582;DHT22;13462;50.764;4.332;2023-02-15T13:30:47;22.10;63.90
25582;DHT22;13462;50.764;4.332;2023-02-15T13:33:22;21.80;65.60
25582;DHT22;13462;50.764;4.332;2023-02-15T13:38:48;20.90;67.70
25582;DHT22;13462;50.764;4.332;2023-02-15T13:41:16;20.70;69.10
25582;DHT22;13462;50.764;4.332;2023-02-15T13:48:44;20.70;70.70
25582;DHT22;13462;50.764;4.332;2023-02-15T13:51:33;20.80;68.20
25582;DHT22;13462;50.764;4.332;2023-02-15T13:56:42;20.60;68.40
25582;DHT22;13462;50.764;4.332;2023-02-15T14:02:07;20.50;70.40
25582;DHT22;13462;50.764;4.332;2023-02-15T14:04:58;20.70;70.40
25582;DHT22;13462;50.764;4.332;2023-02-15T14:08:11;21.00;69.10
25582;DHT22;13462;50.764;4.332;2023-02-15T14:10:24;21.00;68.60
25582;DHT22;13462;50.764;4.332;2023-02-15T14:13:03;21.00;69.20
25582;DHT22;13462;50.764;4.332;2023-02-15T14:16:19;20.70;68.90
25582;DHT22;13462;50.764;4.332;2023-02-15T14:18:25;20.00;70.90
25582;DHT22;13462;50.764;4.332;2023-02-15T14:26:02;19.10;76.00
25582;DHT22;13462;50.764;4.332;2023-02-15T14:31:13;18.60;75.50
25582;DHT22;13462;50.764;4.332;2023-02-15T14:33:40;18.20;77.50
25582;DHT22;13462;50.764;4.332;2023-02-15T14:36:10;17.50;79.80
25582;DHT22;13462;50.764;4.332;2023-02-15T14:38:48;17.50;80.40
25582;DHT22;13462;50.764;4.332;2023-02-15T14:44:08;16.40;82.00
25582;DHT22;13462;50.764;4.332;2023-02-15T14:49:43;15.50;86.20
25582;DHT22;13462;50.764;4.332;2023-02-15T14:52:10;15.30;89.10
25582;DHT22;13462;50.764;4.332;2023-02-15T14:59:45;15.00;90.60
25582;DHT22;13462;50.764;4.332;2023-02-15T15:02:21;14.90;91.20
25582;DHT22;13462;50.764;4.332;2023-02-15T15:09:42;14.30;92.70
25582;DHT22;13462;50.764;4.332;2023-02-15T15:14:50;14.30;93.40
25582;DHT22;13462;50.764;4.332;2023-02-15T15:20:10;14.20;94.20
25582;DHT22;13462;50.764;4.332;2023-02-15T15:22:39;14.00;94.40
25582;DHT22;13462;50.764;4.332;2023-02-15T15:28:00;14.10;94.80
25582;DHT22;13462;50.764;4.332;2023-02-15T15:30:46;13.90;95.30
25582;DHT22;13462;50.764;4.332;2023-02-15T15:52:57;13.20;98.10
25582;DHT22;13462;50.764;4.332;2023-02-15T15:55:36;13.00;98.70
25582;DHT22;13462;50.764;4.332;2023-02-15T15:58:05;12.90;99.30
25582;DHT22;13462;50.764;4.332;2023-02-15T16:00:49;12.70;99.90
25582;DHT22;13462;50.764;4.332;2023-02-15T16:03:23;12.60;99.90
25582;DHT22;13462;50.764;4.332;2023-02-15T16:08:53;12.40;99.90
25582;DHT22;13462;50.764;4.332;2023-02-15T16:17:43;12.10;99.90
25582;DHT22;13462;50.764;4.332;2023-02-15T16:20:40;12.00;99.90
25582;DHT22;13462;50.764;4.332;2023-02-15T16:34:27;11.90;99.90
25582;DHT22;13462;50.764;4.332;2023-02-15T16:37:13;11.80;99.90
25582;DHT22;13462;50.764;4.332;2023-02-15T16:40:52;11.70;99.90
25582;DHT22;13462;50.764;4.332;2023-02-15T16:43:06;11.60;99.90
25582;DHT22;13462;50.764;4.332;2023-02-15T16:45:35;11.50;99.90
25582;DHT22;13462;50.764;4.332;2023-02-15T16:51:11;11.30;99.90
25582;DHT22;13462;50.764;4.332;2023-02-15T16:53:53;11.20;99.90
25582;DHT22;13462;50.764;4.332;2023-02-15T16:56:31;10.90;99.90
25582;DHT22;13462;50.764;4.332;2023-02-15T16:58:57;11.00;99.90
25582;DHT22;13462;50.764;4.332;2023-02-15T17:01:24;11.10;99.90
25582;DHT22;13462;50.764;4.332;2023-02-15T17:03:52;11.10;99.90
25582;DHT22;13462;50.764;4.332;2023-02-15T17:06:35;11.20;99.90
25582;DHT22;13462;50.764;4.332;2023-02-15T17:09:25;10.90;99.90
25582;DHT22;13462;50.764;4.332;2023-02-15T17:11:50;10.70;99.90
25582;DHT22;13462;50.764;4.332;2023-02-15T17:14:19;10.70;99.90
25582;DHT22;13462;50.764;4.332;2023-02-15T17:16:52;10.70;99.90
25582;DHT22;13462;50.764;4.332;2023-02-15T17:19:40;10.60;99.90
25582;DHT22;13462;50.764;4.332;2023-02-15T17:31:38;10.30;99.90
25582;DHT22;13462;50.764;4.332;2023-02-15T17:34:03;10.30;99.90
25582;DHT22;13462;50.764;4.332;2023-02-15T17:36:30;10.20;99.90
25582;DHT22;13462;50.764;4.332;2023-02-15T17:41:21;10.00;99.90
25582;DHT22;13462;50.764;4.332;2023-02-15T17:43:47;10.00;99.90
25582;DHT22;13462;50.764;4.332;2023-02-15T17:46:12;10.10;99.90
25582;DHT22;13462;50.764;4.332;2023-02-15T17:48:39;10.00;99.90
25582;DHT22;13462;50.764;4.332;2023-02-15T17:51:06;10.00;99.90
25582;DHT22;13462;50.764;4.332;2023-02-15T17:53:36;10.10;99.90
25582;DHT22;13462;50.764;4.332;2023-02-15T17:56:01;10.00;99.90
25582;DHT22;13462;50.764;4.332;2023-02-15T17:58:34;10.00;99.90
25582;DHT22;13462;50.764;4.332;2023-02-15T18:01:00;9.80;99.90
25582;DHT22;13462;50.764;4.332;2023-02-15T18:03:48;9.80;99.90
25582;DHT22;13462;50.764;4.332;2023-02-15T18:06:33;9.70;99.90
25582;DHT22;13462;50.764;4.332;2023-02-15T18:09:18;9.70;99.90
25582;DHT22;13462;50.764;4.332;2023-02-15T18:12:14;9.70;99.90
25582;DHT22;13462;50.764;4.332;2023-02-15T18:14:42;9.80;99.90
25582;DHT22;13462;50.764;4.332;2023-02-15T18:17:09;9.90;99.90
25582;DHT22;13462;50.764;4.332;2023-02-15T18:19:35;10.00;99.90
25582;DHT22;13462;50.764;4.332;2023-02-15T18:22:01;9.90;99.90
25582;DHT22;13462;50.764;4.332;2023-02-15T18:24:26;9.80;99.90
25582;DHT22;13462;50.764;4.332;2023-02-15T18:26:53;9.80;99.90
25582;DHT22;13462;50.764;4.332;2023-02-15T18:29:19;9.60;99.90
25582;DHT22;13462;50.764;4.332;2023-02-15T18:31:45;9.70;99.90
25582;DHT22;13462;50.764;4.332;2023-02-15T18:34:19;9.70;99.90
25582;DHT22;13462;50.764;4.332;2023-02-15T18:36:46;9.70;99.90
25582;DHT22;13462;50.764;4.332;2023-02-15T18:39:19;9.70;99.90
25582;DHT22;13462;50.764;4.332;2023-02-15T18:41:47;9.70;99.90
25582;DHT22;13462;50.764;4.332;2023-02-15T18:44:13;9.60;99.90
25582;DHT22;13462;50.764;4.332;2023-02-15T18:46:38;9.60;99.90
25582;DHT22;13462;50.764;4.332;2023-02-15T18:49:04;9.60;99.90
25582;DHT22;13462;50.764;4.332;2023-02-15T18:51:29;9.50;99.90
25582;DHT22;13462;50.764;4.332;2023-02-15T18:53:55;9.40;99.90
25582;DHT22;13462;50.764;4.332;2023-02-15T18:56:21;9.30;99.90
25582;DHT22;13462;50.764;4.332;2023-02-15T18:58:47;9.30;99.90
25582;DHT22;13462;50.764;4.332;2023-02-15T19:01:17;9.30;99.90
25582;DHT22;13462;50.764;4.332;2023-02-15T19:03:43;9.40;99.90
25582;DHT22;13462;50.764;4.332;2023-02-15T19:06:10;9.30;99.90
25582;DHT22;13462;50.764;4.332;2023-02-15T19:08:36;9.40;99.90
25582;DHT22;13462;50.764;4.332;2023-02-15T19:11:01;9.50;99.90
25582;DHT22;13462;50.764;4.332;2023-02-15T19:13:27;9.50;99.90
25582;DHT22;13462;50.764;4.332;2023-02-15T19:15:52;9.50;99.90
25582;DHT22;13462;50.764;4.332;2023-02-15T19:18:18;9.40;99.90
25582;DHT22;13462;50.764;4.332;2023-02-15T19:20:44;9.40;99.90
25582;DHT22;13462;50.764;4.332;2023-02-15T19:23:14;9.40;99.90
25582;DHT22;13462;50.764;4.332;2023-02-15T19:25:43;9.30;99.90
25582;DHT22;13462;50.764;4.332;2023-02-15T19:28:15;9.30;99.90
25582;DHT22;13462;50.764;4.332;2023-02-15T19:30:41;9.30;99.90
25582;DHT22;13462;50.764;4.332;2023-02-15T19:33:08;9.30;99.90
25582;DHT22;13462;50.764;4.332;2023-02-15T19:35:37;9.20;99.90
25582;DHT22;13462;50.764;4.332;2023-02-15T19:38:04;9.20;99.90
25582;DHT22;13462;50.764;4.332;2023-02-15T19:40:32;9.10;99.90
25582;DHT22;13462;50.764;4.332;2023-02-15T19:42:58;9.00;99.90